Time;durP1;ratioP1;P1;durP2;ratioP2;P2;SDS_P1;SDS_P2;PMS_P1;PMS_P2;Temp;Humidity;BMP_temperature;BMP_pressure;BME280_temperature;BME280_humidity;BME280_pressure;Samples;Min_cycle;Max_cycle;Signal;HPM_P1;HPM_P2
2021/01/27 00:00:39;;;;;;;5.05;1.42;;;3.30;99.90;;;;;;5013748;28;20492;-74
2021/01/27 00:03:06;;;;;;;2.78;1.10;;;3.40;99.90;;;;;;5012479;28;20029;-73
2021/01/27 00:05:34;;;;;;;2.50;1.02;;;3.40;99.90;;;;;;5013360;28;20018;-73
2021/01/27 00:08:00;;;;;;;2.60;1.50;;;3.40;99.90;;;;;;5012601;28;20036;-73
2021/01/27 00:10:27;;;;;;;5.10;1.33;;;3.30;99.90;;;;;;5017601;28;20026;-73
2021/01/27 00:12:53;;;;;;;3.42;0.95;;;3.40;99.90;;;;;;5033599;28;20024;-73
2021/01/27 00:15:55;;;;;;;2.13;0.60;;;3.40;99.90;;;;;;5033952;28;20029;-73
2021/01/27 00:18:21;;;;;;;4.18;0.95;;;3.40;99.90;;;;;;5033706;28;20064;-73
2021/01/27 00:20:47;;;;;;;3.10;0.85;;;3.40;99.90;;;;;;5027306;28;20029;-74
2021/01/27 00:23:13;;;;;;;4.20;0.90;;;3.30;99.90;;;;;;5033306;28;20084;-73
2021/01/27 00:25:39;;;;;;;2.78;0.60;;;3.30;99.90;;;;;;5031909;28;20029;-74
2021/01/27 00:28:06;;;;;;;1.77;0.60;;;3.20;99.90;;;;;;5033707;28;20021;-73
2021/01/27 00:30:40;;;;;;;2.88;0.75;;;3.20;99.90;;;;;;5029134;28;20029;-73
2021/01/27 00:33:07;;;;;;;1.92;0.75;;;3.20;99.90;;;;;;5033367;28;20033;-73
2021/01/27 00:35:36;;;;;;;1.40;0.40;;;3.20;99.90;;;;;;5031863;28;20435;-74
2021/01/27 00:38:09;;;;;;;11.68;1.20;;;3.20;99.90;;;;;;5031780;28;20029;-74
2021/01/27 00:40:35;;;;;;;3.03;0.98;;;3.10;99.90;;;;;;5028132;28;20034;-73
2021/01/27 00:43:00;;;;;;;3.83;0.65;;;3.20;99.90;;;;;;5013960;28;20077;-73
2021/01/27 00:45:26;;;;;;;3.97;1.13;;;3.20;99.90;;;;;;5012611;28;20057;-73
2021/01/27 00:47:51;;;;;;;1.85;0.75;;;3.10;99.90;;;;;;5017563;28;20468;-73
2021/01/27 00:50:17;;;;;;;2.60;0.70;;;3.10;99.90;;;;;;5020092;28;20365;-73
2021/01/27 00:52:43;;;;;;;3.28;0.90;;;3.10;99.90;;;;;;5017025;28;20499;-73
2021/01/27 00:55:14;;;;;;;4.65;1.27;;;3.10;99.90;;;;;;5017045;28;20025;-73
2021/01/27 00:57:40;;;;;;;2.75;0.75;;;3.10;99.90;;;;;;5033503;28;20029;-73
2021/01/27 01:00:29;;;;;;;6.20;1.05;;;3.10;99.90;;;;;;5034220;28;20025;-73
2021/01/27 01:02:55;;;;;;;4.55;1.50;;;3.10;99.90;;;;;;5016318;28;20057;-73
2021/01/27 01:05:25;;;;;;;2.38;1.13;;;3.10;99.90;;;;;;5016458;28;20455;-73
2021/01/27 01:07:54;;;;;;;6.50;1.50;;;3.10;99.90;;;;;;5015757;28;20081;-73
2021/01/27 01:10:21;;;;;;;4.75;1.40;;;3.10;99.90;;;;;;5016824;28;20018;-73
2021/01/27 01:12:47;;;;;;;5.55;2.00;;;3.00;99.90;;;;;;5033722;28;20025;-73
2021/01/27 01:15:13;;;;;;;8.30;1.70;;;3.00;99.90;;;;;;5016448;28;20072;-73
2021/01/27 01:17:39;;;;;;;3.75;1.50;;;3.00;99.90;;;;;;5015199;28;20026;-73
2021/01/27 01:20:06;;;;;;;4.75;1.73;;;2.90;99.90;;;;;;5029409;28;20056;-73
2021/01/27 01:22:32;;;;;;;3.55;1.98;;;2.90;99.90;;;;;;5018926;28;20022;-73
2021/01/27 01:24:58;;;;;;;5.78;2.03;;;2.90;99.90;;;;;;5016200;28;20626;-73
2021/01/27 01:27:23;;;;;;;4.53;1.75;;;2.80;99.90;;;;;;5016422;28;20032;-73
2021/01/27 01:29:49;;;;;;;3.72;1.63;;;2.90;99.90;;;;;;5015253;28;20116;-73
2021/01/27 01:32:15;;;;;;;6.85;2.60;;;2.80;99.90;;;;;;5031771;28;20029;-73
2021/01/27 01:34:40;;;;;;;3.88;1.55;;;2.80;99.90;;;;;;5035087;28;20022;-73
2021/01/27 01:37:06;;;;;;;9.15;2.40;;;2.80;99.90;;;;;;5035882;28;20037;-73
2021/01/27 01:39:31;;;;;;;6.75;2.25;;;2.80;99.90;;;;;;5026494;28;20057;-73
2021/01/27 01:41:57;;;;;;;6.30;2.53;;;2.80;99.90;;;;;;5015990;28;20025;-73
2021/01/27 01:44:26;;;;;;;4.53;2.50;;;2.80;99.90;;;;;;5016164;28;20033;-73
2021/01/27 01:46:51;;;;;;;3.72;1.73;;;2.70;99.90;;;;;;5015791;28;20022;-73
2021/01/27 01:49:17;;;;;;;4.82;1.92;;;2.70;99.90;;;;;;5019573;28;20085;-73
2021/01/27 01:51:51;;;;;;;5.78;1.73;;;2.70;99.90;;;;;;5021917;28;20022;-73
2021/01/27 01:54:19;;;;;;;6.53;2.53;;;2.70;99.90;;;;;;5016469;28;20018;-73
2021/01/27 01:56:52;;;;;;;5.97;1.92;;;2.70;99.90;;;;;;5014604;28;20041;-73
2021/01/27 01:59:18;;;;;;;3.75;2.05;;;2.70;99.90;;;;;;5019163;28;20033;-73
2021/01/27 02:01:47;;;;;;;7.03;2.03;;;2.70;99.90;;;;;;5032992;28;20033;-73
2021/01/27 02:04:13;;;;;;;5.18;1.92;;;2.70;99.90;;;;;;5034263;28;20023;-73
2021/01/27 02:06:39;;;;;;;4.97;1.67;;;2.60;99.90;;;;;;5015824;28;20121;-73
2021/01/27 02:09:05;;;;;;;5.22;2.22;;;2.60;99.90;;;;;;5030163;28;20487;-73
2021/01/27 02:12:07;;;;;;;8.02;3.15;;;2.60;99.90;;;;;;5018290;28;20042;-73
2021/01/27 02:15:10;;;;;;;4.22;1.92;;;2.60;99.90;;;;;;5015898;28;20022;-73
2021/01/27 02:17:55;;;;;;;7.90;2.10;;;2.70;99.90;;;;;;5017164;28;20029;-73
2021/01/27 02:20:50;;;;;;;9.95;2.42;;;2.70;99.90;;;;;;5017464;28;20033;-73
2021/01/27 02:24:01;;;;;;;5.07;1.90;;;2.70;99.90;;;;;;5015544;28;20018;-73
2021/01/27 02:26:57;;;;;;;3.95;1.98;;;2.70;99.90;;;;;;5015527;28;20554;-73
2021/01/27 02:30:01;;;;;;;4.57;2.13;;;2.80;99.90;;;;;;5032938;28;20076;-73
2021/01/27 02:32:33;;;;;;;5.55;1.50;;;2.80;99.90;;;;;;5008426;28;20523;-73
2021/01/27 02:35:17;;;;;;;3.75;1.63;;;2.80;99.90;;;;;;5015381;28;20431;-73
2021/01/27 02:38:03;;;;;;;3.15;1.70;;;2.70;99.90;;;;;;5015152;28;20037;-73
2021/01/27 02:40:52;;;;;;;5.63;2.15;;;2.80;99.90;;;;;;5020309;28;20018;-73
2021/01/27 02:43:31;;;;;;;6.22;2.10;;;2.80;99.90;;;;;;5033398;28;20392;-73
2021/01/27 02:46:24;;;;;;;3.00;1.30;;;2.80;99.90;;;;;;5031817;28;20026;-73
2021/01/27 02:48:53;;;;;;;4.32;1.52;;;2.80;99.90;;;;;;5013283;28;20030;-73
2021/01/27 02:51:26;;;;;;;4.28;1.63;;;2.70;99.90;;;;;;5025453;28;20026;-73
2021/01/27 02:54:04;;;;;;;4.32;1.92;;;2.80;99.90;;;;;;5034644;28;20106;-73
2021/01/27 02:56:38;;;;;;;5.87;2.10;;;2.80;99.90;;;;;;5027570;28;20036;-73
2021/01/27 02:59:23;;;;;;;4.63;1.50;;;2.80;99.90;;;;;;5014865;28;20053;-72
2021/01/27 03:02:06;;;;;;;5.25;1.63;;;2.80;99.90;;;;;;5030353;28;20029;-73
2021/01/27 03:04:38;;;;;;;6.32;2.38;;;2.80;99.90;;;;;;5032338;28;20033;-73
2021/01/27 03:07:04;;;;;;;3.22;1.73;;;2.80;99.90;;;;;;5033022;28;20055;-73
2021/01/27 03:09:56;;;;;;;3.92;1.83;;;2.80;99.90;;;;;;5034488;28;20373;-73
2021/01/27 03:12:22;;;;;;;2.63;1.08;;;2.80;99.90;;;;;;5014621;28;20030;-73
2021/01/27 03:14:48;;;;;;;5.40;1.48;;;2.70;99.90;;;;;;5020664;28;20064;-73
2021/01/27 03:17:17;;;;;;;2.75;1.30;;;2.70;99.90;;;;;;5034825;28;20018;-73
2021/01/27 03:19:59;;;;;;;2.88;1.48;;;2.70;99.90;;;;;;5024168;28;20026;-73
2021/01/27 03:22:34;;;;;;;2.60;1.20;;;2.70;99.90;;;;;;5014461;28;20048;-73
2021/01/27 03:25:11;;;;;;;3.40;1.33;;;2.70;99.90;;;;;;5033007;28;20018;-73
2021/01/27 03:27:51;;;;;;;5.32;1.80;;;2.70;99.90;;;;;;5034644;28;20063;-73
2021/01/27 03:30:17;;;;;;;4.75;1.48;;;2.70;99.90;;;;;;5031702;28;20021;-73
2021/01/27 03:33:00;;;;;;;4.63;1.60;;;2.70;99.90;;;;;;5016205;28;20045;-73
2021/01/27 03:35:32;;;;;;;4.97;1.60;;;2.60;99.90;;;;;;5014544;28;20022;-73
2021/01/27 03:38:15;;;;;;;2.97;1.27;;;2.60;99.90;;;;;;5013504;28;20120;-73
2021/01/27 03:40:44;;;;;;;6.75;1.67;;;2.60;99.90;;;;;;5017734;28;20522;-73
2021/01/27 03:43:22;;;;;;;5.78;1.45;;;2.60;99.90;;;;;;5025823;28;20025;-73
2021/01/27 03:45:51;;;;;;;3.58;1.65;;;2.50;99.90;;;;;;5014827;28;20103;-73
2021/01/27 03:48:32;;;;;;;4.82;1.70;;;2.50;99.90;;;;;;5012786;28;20022;-73
2021/01/27 03:51:00;;;;;;;5.57;1.48;;;2.50;99.90;;;;;;5021118;28;20375;-73
2021/01/27 03:53:28;;;;;;;2.97;1.00;;;2.40;99.90;;;;;;5025122;28;20379;-74
2021/01/27 03:56:16;;;;;;;3.70;1.73;;;2.40;99.90;;;;;;5013858;28;20033;-74
2021/01/27 03:58:45;;;;;;;2.17;1.58;;;2.40;99.90;;;;;;5014663;28;20026;-74
2021/01/27 04:01:17;;;;;;;4.68;1.85;;;2.40;99.90;;;;;;5021709;28;20391;-74
2021/01/27 04:03:43;;;;;;;2.50;1.55;;;2.40;99.90;;;;;;5022902;28;20480;-74
2021/01/27 04:06:09;;;;;;;1.88;1.13;;;2.40;99.90;;;;;;5014382;28;20484;-74
2021/01/27 04:08:35;;;;;;;3.92;1.50;;;2.40;99.90;;;;;;5014798;28;20037;-73
2021/01/27 04:11:01;;;;;;;4.68;1.10;;;2.50;99.90;;;;;;5013070;28;20026;-73
2021/01/27 04:13:28;;;;;;;3.90;1.30;;;2.40;99.90;;;;;;5016993;28;20049;-73
2021/01/27 04:15:53;;;;;;;1.80;1.40;;;2.40;99.90;;;;;;5033831;28;20017;-73
2021/01/27 04:18:19;;;;;;;2.83;1.10;;;2.40;99.90;;;;;;5032511;28;20022;-73
2021/01/27 04:20:45;;;;;;;2.88;1.33;;;2.40;99.90;;;;;;5031488;28;20488;-73
2021/01/27 04:23:11;;;;;;;2.28;1.50;;;2.40;99.90;;;;;;5036613;28;20072;-74
2021/01/27 04:25:37;;;;;;;3.13;1.25;;;2.40;99.90;;;;;;5028146;28;20022;-73
2021/01/27 04:28:03;;;;;;;4.55;1.77;;;2.40;99.90;;;;;;5017748;28;20100;-73
2021/01/27 04:30:31;;;;;;;3.72;1.40;;;2.40;99.90;;;;;;5018928;28;20112;-73
2021/01/27 04:32:59;;;;;;;3.40;1.77;;;2.30;99.90;;;;;;5017581;28;20029;-73
2021/01/27 04:35:25;;;;;;;1.58;0.93;;;2.20;99.90;;;;;;5033944;28;20040;-73
2021/01/27 04:37:50;;;;;;;1.60;1.20;;;2.30;99.90;;;;;;5035598;28;20113;-73
2021/01/27 04:40:25;;;;;;;2.35;1.08;;;2.30;99.90;;;;;;5032640;28;20072;-73
2021/01/27 04:42:51;;;;;;;2.22;1.50;;;2.30;99.90;;;;;;5016923;28;20022;-73
2021/01/27 04:45:17;;;;;;;2.20;1.33;;;2.30;99.90;;;;;;5027883;28;20072;-73
2021/01/27 04:48:11;;;;;;;4.50;1.80;;;2.20;99.90;;;;;;5017086;28;20030;-73
2021/01/27 04:50:51;;;;;;;3.00;1.50;;;2.20;99.90;;;;;;5017169;28;20365;-73
2021/01/27 04:53:49;;;;;;;3.05;1.75;;;2.20;99.90;;;;;;5029414;28;20076;-73
2021/01/27 04:56:32;;;;;;;3.00;1.67;;;2.10;99.90;;;;;;5035431;28;20029;-73
2021/01/27 04:59:34;;;;;;;2.90;1.70;;;2.20;99.90;;;;;;5035222;28;20479;-73
2021/01/27 05:02:17;;;;;;;2.28;1.20;;;2.20;99.90;;;;;;5017659;28;20056;-73
2021/01/27 05:05:06;;;;;;;3.75;1.67;;;2.20;99.90;;;;;;5016030;28;20026;-73
2021/01/27 05:07:42;;;;;;;3.30;2.42;;;2.10;99.90;;;;;;5015387;28;20117;-73
2021/01/27 05:10:11;;;;;;;1.95;1.20;;;2.10;99.90;;;;;;5031999;28;20033;-73
2021/01/27 05:13:14;;;;;;;3.30;1.77;;;2.10;99.90;;;;;;5016813;28;20109;-73
2021/01/27 05:15:39;;;;;;;4.75;1.83;;;2.10;99.90;;;;;;5016428;28;20036;-73
2021/01/27 05:18:05;;;;;;;2.58;1.52;;;2.20;99.90;;;;;;5015519;28;20029;-74
2021/01/27 05:20:30;;;;;;;2.97;2.08;;;2.20;99.90;;;;;;5035953;28;20033;-74
2021/01/27 05:22:57;;;;;;;3.67;2.25;;;2.20;99.90;;;;;;5034646;28;20131;-73
2021/01/27 05:25:28;;;;;;;2.67;1.50;;;2.20;99.90;;;;;;5036550;28;20025;-73
2021/01/27 05:27:57;;;;;;;4.55;2.20;;;2.10;99.90;;;;;;5036113;28;20022;-73
2021/01/27 05:30:28;;;;;;;4.72;2.15;;;2.10;99.90;;;;;;5016925;28;20160;-73
2021/01/27 05:32:56;;;;;;;3.72;2.00;;;2.10;99.90;;;;;;5015670;28;20029;-73
2021/01/27 05:35:27;;;;;;;2.75;2.05;;;2.10;99.90;;;;;;5015743;28;20069;-73
2021/01/27 05:37:53;;;;;;;2.67;1.77;;;2.10;99.90;;;;;;5026968;28;20126;-73
2021/01/27 05:40:35;;;;;;;4.07;2.70;;;2.20;99.90;;;;;;5034437;28;20475;-73
2021/01/27 05:43:16;;;;;;;3.60;1.85;;;2.20;99.90;;;;;;5036029;28;20387;-73
2021/01/27 05:45:46;;;;;;;2.67;2.05;;;2.20;99.90;;;;;;5035424;28;20032;-73
2021/01/27 05:48:22;;;;;;;2.90;2.00;;;2.20;99.90;;;;;;5021131;28;20029;-73
2021/01/27 05:50:48;;;;;;;3.10;2.22;;;2.20;99.90;;;;;;5015467;28;20028;-73
2021/01/27 05:53:16;;;;;;;3.08;2.10;;;2.20;99.90;;;;;;5014305;28;20113;-73
2021/01/27 05:55:59;;;;;;;3.10;2.70;;;2.20;99.90;;;;;;5015632;28;20037;-73
2021/01/27 05:58:25;;;;;;;2.90;2.40;;;2.20;99.90;;;;;;5029323;28;20091;-73
2021/01/27 06:00:51;;;;;;;3.22;2.25;;;2.20;99.90;;;;;;5035468;28;20087;-73
2021/01/27 06:03:24;;;;;;;2.53;2.15;;;2.20;99.90;;;;;;5035210;28;20029;-73
2021/01/27 06:05:51;;;;;;;3.13;2.00;;;2.30;99.90;;;;;;5035585;28;20075;-73
2021/01/27 06:08:22;;;;;;;2.70;2.20;;;2.20;99.90;;;;;;5020738;28;20097;-73
2021/01/27 06:10:49;;;;;;;3.03;2.35;;;2.30;99.90;;;;;;5014037;28;20049;-73
2021/01/27 06:13:24;;;;;;;3.00;2.22;;;2.20;99.90;;;;;;5015282;28;20424;-73
2021/01/27 06:15:50;;;;;;;5.75;2.83;;;2.20;99.90;;;;;;5015228;28;20481;-73
2021/01/27 06:18:27;;;;;;;4.60;2.70;;;2.30;99.90;;;;;;5015193;28;20026;-73
2021/01/27 06:21:09;;;;;;;3.03;2.30;;;2.30;99.90;;;;;;5013932;28;20480;-73
2021/01/27 06:23:53;;;;;;;3.20;2.38;;;2.30;99.90;;;;;;5013951;28;20030;-73
2021/01/27 06:26:43;;;;;;;3.67;1.85;;;2.30;99.90;;;;;;5025543;28;20393;-73
2021/01/27 06:29:31;;;;;;;3.42;2.25;;;2.40;99.90;;;;;;5033585;28;20448;-73
2021/01/27 06:32:35;;;;;;;3.28;2.22;;;2.40;99.90;;;;;;5035230;28;20105;-73
2021/01/27 06:35:29;;;;;;;5.43;2.22;;;2.30;99.90;;;;;;5021137;28;20022;-73
2021/01/27 06:38:25;;;;;;;3.22;2.30;;;2.30;99.90;;;;;;5014741;28;20541;-73
2021/01/27 06:40:59;;;;;;;3.53;2.55;;;2.30;99.90;;;;;;5013553;28;20030;-73
2021/01/27 06:43:40;;;;;;;3.35;2.45;;;2.40;99.90;;;;;;5014310;28;20362;-73
2021/01/27 06:46:27;;;;;;;2.50;1.95;;;2.40;99.90;;;;;;5015094;28;20476;-73
2021/01/27 06:49:08;;;;;;;2.95;2.20;;;2.40;99.90;;;;;;5014519;28;20076;-75
2021/01/27 06:52:09;;;;;;;3.40;2.25;;;2.40;99.90;;;;;;5014793;28;20034;-75
2021/01/27 06:54:44;;;;;;;2.15;1.70;;;2.40;99.90;;;;;;5045142;22;20041;-73
2021/01/27 06:57:18;;;;;;;4.10;1.95;;;2.40;99.90;;;;;;5034469;28;20056;-72
2021/01/27 07:00:21;;;;;;;2.00;1.83;;;2.40;99.90;;;;;;5033222;28;20071;-72
2021/01/27 07:03:24;;;;;;;2.55;1.45;;;2.40;99.90;;;;;;5033542;28;20033;-72
2021/01/27 07:05:55;;;;;;;3.38;1.70;;;2.40;99.90;;;;;;5034652;28;20386;-72
2021/01/27 07:08:42;;;;;;;3.05;1.88;;;2.40;99.90;;;;;;5035298;28;20032;-74
2021/01/27 07:11:44;;;;;;;2.88;1.80;;;2.40;99.90;;;;;;5034457;28;20021;-75
2021/01/27 07:14:27;;;;;;;3.25;1.80;;;2.40;99.90;;;;;;5034727;28;20059;-75
2021/01/27 07:17:13;;;;;;;2.72;1.88;;;2.30;99.90;;;;;;5034518;28;20025;-75
2021/01/27 07:20:09;;;;;;;2.47;1.80;;;2.30;99.90;;;;;;5034606;28;20025;-75
2021/01/27 07:23:10;;;;;;;4.63;2.10;;;2.30;99.90;;;;;;5033384;28;20029;-75
2021/01/27 07:25:49;;;;;;;2.78;1.60;;;2.30;99.90;;;;;;5018578;28;20029;-76
2021/01/27 07:28:33;;;;;;;;;;;2.30;99.90;;;;;;5034717;28;20029;-75
2021/01/27 07:31:33;;;;;;;4.05;2.38;;;2.40;99.90;;;;;;5033159;28;19909;-75
2021/01/27 07:34:35;;;;;;;3.35;2.05;;;2.50;99.90;;;;;;5033612;28;20017;-75
2021/01/27 07:37:09;;;;;;;3.38;2.35;;;2.40;99.90;;;;;;5078195;23;20080;-75
2021/01/27 07:39:54;;;;;;;4.70;2.42;;;2.50;99.90;;;;;;5053934;28;20036;-74
2021/01/27 07:42:49;;;;;;;4.65;2.83;;;2.50;99.90;;;;;;5049663;28;20108;-73
2021/01/27 07:45:22;;;;;;;5.38;3.20;;;2.50;99.90;;;;;;5024583;28;20098;-74
2021/01/27 07:48:12;;;;;;;5.80;3.30;;;2.50;99.90;;;;;;5063516;28;20478;-74
2021/01/27 07:50:39;;;;;;;6.55;3.55;;;2.50;99.90;;;;;;5074086;28;20107;-74
2021/01/27 07:53:24;;;;;;;5.50;3.42;;;2.40;99.90;;;;;;5073493;28;20025;-74
2021/01/27 07:56:14;;;;;;;8.48;4.63;;;2.40;99.90;;;;;;5076774;28;20425;-74
2021/01/27 07:59:05;;;;;;;7.28;3.83;;;2.50;99.90;;;;;;5075318;28;20371;-74
2021/01/27 08:01:48;;;;;;;7.65;4.32;;;2.60;99.90;;;;;;5047395;28;20031;-74
2021/01/27 08:04:32;;;;;;;7.50;3.97;;;2.60;99.90;;;;;;5045934;28;20037;-72
2021/01/27 08:06:59;;;;;;;7.13;4.22;;;2.60;99.90;;;;;;5057637;28;20021;-72
2021/01/27 08:09:45;;;;;;;8.68;4.55;;;2.60;99.90;;;;;;5057438;28;20021;-73
2021/01/27 08:12:19;;;;;;;8.75;4.32;;;2.60;99.90;;;;;;5057180;28;20037;-72
2021/01/27 08:15:09;;;;;;;7.35;3.83;;;2.70;99.90;;;;;;5057525;28;20028;-72
2021/01/27 08:17:44;;;;;;;10.77;5.28;;;2.70;99.90;;;;;;5057220;28;20449;-72
2021/01/27 08:20:21;;;;;;;9.05;4.90;;;2.70;99.90;;;;;;5057618;28;20029;-72
2021/01/27 08:22:49;;;;;;;11.18;5.25;;;2.70;99.90;;;;;;5026544;28;20032;-72
2021/01/27 08:25:52;;;;;;;10.23;5.28;;;2.70;99.90;;;;;;5041410;28;20037;-74
2021/01/27 08:28:24;;;;;;;8.77;4.68;;;2.70;99.90;;;;;;5037548;28;20052;-72
2021/01/27 08:31:08;;;;;;;7.63;3.65;;;2.70;99.90;;;;;;5057071;28;20075;-72
2021/01/27 08:33:54;;;;;;;12.32;5.43;;;2.70;99.90;;;;;;5038289;28;20483;-72
2021/01/27 08:36:23;;;;;;;10.93;5.13;;;2.80;99.90;;;;;;5037200;28;20048;-73
2021/01/27 08:38:57;;;;;;;12.55;5.47;;;2.80;99.90;;;;;;5019494;28;20025;-73
2021/01/27 08:41:35;;;;;;;10.88;5.43;;;2.80;99.90;;;;;;5061187;28;20060;-73
2021/01/27 08:44:02;;;;;;;10.40;5.18;;;2.90;99.90;;;;;;5024592;28;20057;-72
2021/01/27 08:46:40;;;;;;;11.52;5.50;;;2.90;99.90;;;;;;5039698;28;20398;-73
2021/01/27 08:49:06;;;;;;;10.95;5.05;;;2.90;99.90;;;;;;5037599;28;20021;-73
2021/01/27 08:51:45;;;;;;;9.27;4.10;;;2.90;99.90;;;;;;5056537;28;20383;-73
2021/01/27 08:54:34;;;;;;;11.73;5.97;;;3.00;99.90;;;;;;5043439;28;20553;-74
2021/01/27 08:57:25;;;;;;;12.00;6.13;;;3.00;99.90;;;;;;5045371;28;20485;-74
2021/01/27 09:00:12;;;;;;;10.73;5.88;;;3.00;99.90;;;;;;5020725;28;20036;-74
2021/01/27 09:02:43;;;;;;;11.32;5.28;;;3.00;99.90;;;;;;5039425;28;20415;-72
2021/01/27 09:05:19;;;;;;;10.75;5.22;;;3.10;99.90;;;;;;5045773;28;20044;-74
2021/01/27 09:08:09;;;;;;;10.05;5.07;;;3.10;99.90;;;;;;5055978;28;20075;-73
2021/01/27 09:10:38;;;;;;;12.43;6.22;;;3.10;99.90;;;;;;5041466;28;20056;-71
2021/01/27 09:13:19;;;;;;;7.50;4.05;;;3.10;99.90;;;;;;5047119;28;20490;-72
2021/01/27 09:15:50;;;;;;;10.77;5.90;;;3.20;99.90;;;;;;5020886;28;20040;-72
2021/01/27 09:18:15;;;;;;;12.18;5.80;;;3.20;99.90;;;;;;5037198;28;20025;-72
2021/01/27 09:20:41;;;;;;;10.95;5.70;;;3.20;99.90;;;;;;5045534;28;20509;-72
2021/01/27 09:23:09;;;;;;;11.30;5.60;;;3.20;99.90;;;;;;5026581;28;20049;-72
2021/01/27 09:25:44;;;;;;;10.90;5.88;;;3.20;99.90;;;;;;5038517;28;20031;-72
2021/01/27 09:28:10;;;;;;;15.07;5.95;;;3.30;99.90;;;;;;5048880;28;20017;-72
2021/01/27 09:30:40;;;;;;;11.45;5.53;;;3.30;99.90;;;;;;5035555;28;20505;-72
2021/01/27 09:33:14;;;;;;;13.48;5.78;;;3.50;99.90;;;;;;5036871;28;20017;-75
2021/01/27 09:35:42;;;;;;;12.50;6.43;;;3.20;99.90;;;;;;5056740;28;20025;-74
2021/01/27 09:38:16;;;;;;;10.98;6.00;;;3.30;99.90;;;;;;5055441;28;20095;-72
2021/01/27 09:40:59;;;;;;;10.93;4.88;;;3.30;99.90;;;;;;5056120;28;20062;-72
2021/01/27 09:43:25;;;;;;;12.48;6.47;;;3.50;99.90;;;;;;5056708;28;20024;-73
2021/01/27 09:45:52;;;;;;;9.93;5.03;;;3.40;99.90;;;;;;5055913;28;20055;-73
2021/01/27 09:48:21;;;;;;;11.23;4.72;;;3.40;99.90;;;;;;5037956;28;20070;-73
2021/01/27 09:50:55;;;;;;;11.57;4.88;;;3.40;99.90;;;;;;5049044;28;20025;-74
2021/01/27 09:53:33;;;;;;;13.30;5.47;;;3.50;99.90;;;;;;5035534;28;20018;-72
2021/01/27 09:56:00;;;;;;;10.43;5.13;;;3.60;99.90;;;;;;5048393;28;20025;-72
2021/01/27 09:58:27;;;;;;;13.02;5.78;;;3.60;99.90;;;;;;5034984;28;20474;-71
2021/01/27 10:01:05;;;;;;;16.13;6.53;;;3.70;99.90;;;;;;5039287;28;20060;-73
2021/01/27 10:03:34;;;;;;;12.98;6.43;;;3.70;99.90;;;;;;5035170;28;20033;-73
2021/01/27 10:06:00;;;;;;;12.57;5.47;;;3.70;99.90;;;;;;5029412;28;20079;-73
2021/01/27 10:08:29;;;;;;;12.63;5.38;;;3.80;99.90;;;;;;5043452;28;20100;-72
2021/01/27 10:11:24;;;;;;;12.80;5.85;;;3.80;99.90;;;;;;5037308;28;20028;-73
2021/01/27 10:14:00;;;;;;;12.15;5.82;;;3.80;99.90;;;;;;5034146;28;20040;-74
2021/01/27 10:16:26;;;;;;;13.45;6.65;;;3.80;99.90;;;;;;5039729;28;20052;-74
2021/01/27 10:19:04;;;;;;;14.38;6.70;;;3.80;99.90;;;;;;5043563;28;20483;-72
2021/01/27 10:21:30;;;;;;;19.13;7.78;;;3.90;99.90;;;;;;5037502;28;20058;-72
2021/01/27 10:23:59;;;;;;;15.50;7.03;;;3.90;99.90;;;;;;5029478;28;20026;-74
2021/01/27 10:26:38;;;;;;;20.45;8.45;;;4.00;99.90;;;;;;5022378;28;20025;-74
2021/01/27 10:29:15;;;;;;;;;;;4.00;99.90;;;;;;5035898;28;20473;-74
2021/01/27 10:31:53;;;;;;;13.77;6.20;;;4.10;99.90;;;;;;5017079;28;19966;-73
2021/01/27 10:34:51;;;;;;;14.98;7.45;;;4.10;99.90;;;;;;5016774;28;20027;-75
2021/01/27 10:37:29;;;;;;;18.98;7.60;;;4.20;99.90;;;;;;5011798;28;20115;-72
2021/01/27 10:40:25;;;;;;;18.40;7.97;;;4.20;99.90;;;;;;5036592;28;20025;-72
2021/01/27 10:43:01;;;;;;;17.55;7.70;;;4.20;99.90;;;;;;5016552;28;20116;-71
2021/01/27 10:45:36;;;;;;;18.13;8.40;;;4.30;99.90;;;;;;5016392;28;20475;-72
2021/01/27 10:48:11;;;;;;;17.95;7.97;;;4.30;99.90;;;;;;5034481;22;20103;-73
2021/01/27 10:50:51;;;;;;;19.13;8.90;;;4.40;99.90;;;;;;5013763;28;20064;-71
2021/01/27 10:53:19;;;;;;;18.60;9.05;;;4.50;99.90;;;;;;5014476;28;20380;-72
2021/01/27 10:55:51;;;;;;;18.27;8.73;;;4.60;99.90;;;;;;5014558;28;20502;-74
2021/01/27 10:58:17;;;;;;;19.55;9.43;;;4.70;99.90;;;;;;5014451;28;20473;-72
2021/01/27 11:00:44;;;;;;;17.00;8.48;;;4.80;99.90;;;;;;5013671;28;20028;-73
2021/01/27 11:03:10;;;;;;;24.08;8.75;;;4.80;99.90;;;;;;5008865;28;20025;-71
2021/01/27 11:05:36;;;;;;;20.88;9.15;;;4.90;99.90;;;;;;5012653;28;20037;-71
2021/01/27 11:08:07;;;;;;;20.80;8.95;;;5.00;99.90;;;;;;5012179;28;20132;-72
2021/01/27 11:10:33;;;;;;;24.20;10.65;;;5.00;99.90;;;;;;5029730;28;20399;-73
2021/01/27 11:12:59;;;;;;;20.80;9.85;;;5.00;99.90;;;;;;5014279;28;20022;-72
2021/01/27 11:15:25;;;;;;;19.30;8.93;;;5.10;99.90;;;;;;5013793;28;20018;-72
2021/01/27 11:17:51;;;;;;;20.00;9.05;;;5.10;99.90;;;;;;5029164;28;20022;-72
2021/01/27 11:20:20;;;;;;;24.63;10.68;;;5.10;99.90;;;;;;5013861;28;20022;-71
2021/01/27 11:22:46;;;;;;;21.10;9.15;;;5.20;99.90;;;;;;5012274;28;20087;-72
2021/01/27 11:25:16;;;;;;;18.38;8.55;;;5.20;99.90;;;;;;5013775;28;20029;-73
2021/01/27 11:27:41;;;;;;;21.35;9.88;;;5.20;99.90;;;;;;5011623;28;20030;-72
2021/01/27 11:30:07;;;;;;;19.63;9.15;;;5.20;99.90;;;;;;5028157;28;20028;-72
2021/01/27 11:32:35;;;;;;;20.88;9.90;;;5.20;99.90;;;;;;5014048;28;20026;-72
2021/01/27 11:35:01;;;;;;;20.70;9.98;;;5.20;99.90;;;;;;5013296;28;20076;-72
2021/01/27 11:37:27;;;;;;;23.90;10.23;;;5.20;99.90;;;;;;5014026;28;20034;-72
2021/01/27 11:39:52;;;;;;;27.35;11.40;;;5.30;99.90;;;;;;5022882;28;20085;-72
2021/01/27 11:42:18;;;;;;;23.98;10.02;;;5.30;99.90;;;;;;5008003;28;20038;-72
2021/01/27 11:44:44;;;;;;;24.35;10.35;;;5.40;99.90;;;;;;5009117;28;20445;-72
2021/01/27 11:47:09;;;;;;;21.30;9.35;;;5.40;99.90;;;;;;5013363;28;20056;-72
2021/01/27 11:49:35;;;;;;;21.65;9.90;;;6.10;99.90;;;;;;5013448;28;20034;-72
2021/01/27 11:52:01;;;;;;;22.52;10.07;;;5.50;99.90;;;;;;5013547;28;20105;-72
2021/01/27 11:54:26;;;;;;;20.35;9.50;;;5.50;99.90;;;;;;5009103;28;20377;-72
2021/01/27 11:56:52;;;;;;;21.58;9.40;;;5.60;99.90;;;;;;5005825;28;20472;-73
2021/01/27 11:59:18;;;;;;;19.70;9.07;;;5.70;99.90;;;;;;5013359;28;20026;-73
2021/01/27 12:01:43;;;;;;;21.25;11.05;;;5.70;99.90;;;;;;5011693;28;20030;-72
2021/01/27 12:04:09;;;;;;;23.80;10.25;;;5.70;99.90;;;;;;5013473;28;20022;-73
2021/01/27 12:06:34;;;;;;;21.65;9.70;;;5.70;99.90;;;;;;5027705;28;20030;-72
2021/01/27 12:09:00;;;;;;;18.08;8.52;;;5.70;99.90;;;;;;5012780;28;20387;-72
2021/01/27 12:11:25;;;;;;;19.83;9.48;;;5.80;99.90;;;;;;5012771;28;20029;-72
2021/01/27 12:13:51;;;;;;;22.27;9.23;;;5.80;99.90;;;;;;5028761;28;20026;-72
2021/01/27 12:16:17;;;;;;;21.92;8.63;;;5.90;99.90;;;;;;5013229;28;20436;-72
2021/01/27 12:18:43;;;;;;;23.00;9.25;;;5.90;99.90;;;;;;5013731;28;20052;-73
2021/01/27 12:21:09;;;;;;;18.40;9.20;;;6.00;99.90;;;;;;5012505;28;20033;-73
2021/01/27 12:23:35;;;;;;;15.27;8.63;;;6.10;99.90;;;;;;5013265;28;20049;-73
2021/01/27 12:26:00;;;;;;;19.05;8.27;;;6.10;99.90;;;;;;5012612;28;20463;-73
2021/01/27 12:28:26;;;;;;;20.25;8.40;;;6.10;99.90;;;;;;5028632;28;20053;-73
2021/01/27 12:30:52;;;;;;;21.80;9.05;;;6.20;99.90;;;;;;5013392;28;20033;-73
2021/01/27 12:33:18;;;;;;;18.10;8.55;;;6.20;99.90;;;;;;5028532;28;20029;-73
2021/01/27 12:35:43;;;;;;;18.42;8.95;;;6.20;99.90;;;;;;5013795;28;20483;-74
2021/01/27 12:38:09;;;;;;;18.75;8.55;;;6.30;99.90;;;;;;5013202;28;20026;-74
2021/01/27 12:40:35;;;;;;;18.05;7.93;;;6.20;99.90;;;;;;5013960;28;20022;-74
2021/01/27 12:43:00;;;;;;;18.25;8.68;;;6.20;99.90;;;;;;5016659;28;20029;-74
2021/01/27 12:45:28;;;;;;;17.27;8.52;;;6.20;99.90;;;;;;5018038;28;20030;-74
2021/01/27 12:47:54;;;;;;;18.98;8.60;;;6.50;99.90;;;;;;5017613;28;20030;-74
2021/01/27 12:50:20;;;;;;;18.42;9.07;;;6.20;99.90;;;;;;5017187;28;20519;-74
2021/01/27 12:52:46;;;;;;;22.50;9.93;;;6.20;99.90;;;;;;5017277;28;20021;-74
2021/01/27 12:55:14;;;;;;;22.77;9.30;;;6.10;99.90;;;;;;5017399;28;20022;-74
2021/01/27 12:57:43;;;;;;;22.90;8.85;;;6.10;99.90;;;;;;5033004;28;20121;-74
2021/01/27 13:00:14;;;;;;;22.08;9.65;;;6.20;99.90;;;;;;5017403;28;20058;-74
2021/01/27 13:02:39;;;;;;;21.27;8.52;;;6.10;99.90;;;;;;5018721;28;20022;-74
2021/01/27 13:05:05;;;;;;;18.40;8.55;;;6.20;99.90;;;;;;5017678;28;20084;-74
2021/01/27 13:07:31;;;;;;;22.65;9.98;;;6.20;99.90;;;;;;5032572;28;20484;-76
2021/01/27 13:09:57;;;;;;;18.63;8.30;;;6.20;99.90;;;;;;5017402;28;20022;-74
2021/01/27 13:12:24;;;;;;;20.73;9.40;;;6.20;99.90;;;;;;5015910;28;20018;-74
2021/01/27 13:14:51;;;;;;;22.60;8.73;;;6.30;99.90;;;;;;5015920;28;20018;-74
2021/01/27 13:17:16;;;;;;;17.77;8.68;;;6.40;99.90;;;;;;5017267;28;20046;-74
2021/01/27 13:19:42;;;;;;;22.45;9.30;;;6.40;99.90;;;;;;5015910;28;20440;-74
2021/01/27 13:22:07;;;;;;;24.23;8.95;;;6.40;99.90;;;;;;5016913;28;20040;-74
2021/01/27 13:24:33;;;;;;;19.67;9.65;;;6.50;99.90;;;;;;5017479;28;20053;-74
2021/01/27 13:26:59;;;;;;;20.15;8.57;;;6.50;99.90;;;;;;5016535;28;20026;-74